Time;durP1;ratioP1;P1;durP2;ratioP2;P2;SDS_P1;SDS_P2;PMS_P1;PMS_P2;Temp;Humidity;BMP_temperature;BMP_pressure;BME280_temperature;BME280_humidity;BME280_pressure;Samples;Min_cycle;Max_cycle;Signal;HPM_P1;HPM_P2
2022/03/11 00:00:38;;;;;;;16.13;5.40;;;;;;;-4.14;39.01;102172.41;4205321;28;20228;-64
2022/03/11 00:03:04;;;;;;;13.53;4.90;;;;;;;-4.13;39.28;102163.75;4195980;28;20299;-67
2022/03/11 00:05:31;;;;;;;14.73;5.63;;;;;;;-4.15;39.12;102165.47;4190546;28;20466;-65
2022/03/11 00:07:58;;;;;;;18.57;5.00;;;;;;;-4.16;39.14;102162.03;4191508;28;20248;-64
2022/03/11 00:10:24;;;;;;;18.87;5.83;;;;;;;-4.13;39.65;102166.34;4199553;28;20233;-64
2022/03/11 00:12:51;;;;;;;18.43;5.63;;;;;;;-4.13;39.38;102172.41;4202022;28;20238;-63
2022/03/11 00:15:17;;;;;;;13.90;4.80;;;;;;;-4.18;39.46;102168.97;4201271;28;20260;-63
2022/03/11 00:17:44;;;;;;;16.73;4.97;;;;;;;-4.25;39.74;102175.91;4189801;28;25828;-64
2022/03/11 00:20:11;;;;;;;18.57;5.57;;;;;;;-4.21;39.74;102181.09;4211351;28;20236;-66
2022/03/11 00:22:37;;;;;;;14.93;5.37;;;;;;;-4.09;39.96;102179.31;4201501;28;20273;-64
2022/03/11 00:25:04;;;;;;;12.57;4.73;;;;;;;-4.30;40.32;102177.69;4197323;28;22054;-67
2022/03/11 00:27:31;;;;;;;12.17;4.73;;;;;;;-4.26;39.74;102182.00;4179704;28;22234;-64
2022/03/11 00:29:58;;;;;;;14.47;5.00;;;;;;;-4.29;40.02;102179.41;4191837;28;20233;-64
2022/03/11 00:32:24;;;;;;;16.17;5.57;;;;;;;-4.28;40.23;102172.50;4203908;28;23272;-64
2022/03/11 00:34:51;;;;;;;15.47;5.93;;;;;;;-4.35;40.43;102176.00;4202243;28;20224;-63
2022/03/11 00:37:17;;;;;;;23.10;6.03;;;;;;;-4.30;40.41;102171.63;4185174;28;26667;-63
2022/03/11 00:39:44;;;;;;;17.10;5.50;;;;;;;-4.39;40.63;102169.94;4187710;28;20282;-64
2022/03/11 00:42:10;;;;;;;17.07;5.10;;;;;;;-4.36;39.98;102169.91;4188386;28;22949;-63
2022/03/11 00:44:38;;;;;;;19.67;6.33;;;;;;;-4.29;40.13;102176.78;4181086;28;20236;-64
2022/03/11 00:47:05;;;;;;;15.87;5.57;;;;;;;-4.34;39.89;102173.38;4201342;28;22143;-67
2022/03/11 00:49:32;;;;;;;13.80;5.20;;;;;;;-4.22;39.60;102179.38;4188702;28;21605;-63
2022/03/11 00:51:58;;;;;;;17.97;5.70;;;;;;;-4.34;39.59;102183.75;4200845;28;20437;-64
2022/03/11 00:54:25;;;;;;;16.10;5.10;;;;;;;-4.41;40.24;102176.88;4202965;28;20287;-64
2022/03/11 00:56:51;;;;;;;14.03;5.27;;;;;;;-4.46;39.85;102168.22;4203798;28;20694;-63
2022/03/11 00:59:18;;;;;;;13.73;4.60;;;;;;;-4.34;39.82;102175.97;4202876;28;21815;-64
2022/03/11 01:01:45;;;;;;;20.77;4.63;;;;;;;-4.38;39.74;102174.25;4195000;28;20829;-63
2022/03/11 01:04:11;;;;;;;15.97;5.53;;;;;;;-4.41;39.90;102171.66;4194845;28;20724;-64
2022/03/11 01:06:38;;;;;;;14.20;5.40;;;;;;;-4.42;39.77;102171.69;4192555;28;20775;-64
2022/03/11 01:09:05;;;;;;;16.17;5.57;;;;;;;-4.42;39.64;102175.16;4211594;28;22535;-66
2022/03/11 01:11:31;;;;;;;15.70;5.27;;;;;;;-4.47;39.57;102171.72;4191095;28;20313;-66
2022/03/11 01:13:58;;;;;;;13.73;4.90;;;;;;;-4.54;39.87;102169.97;4194443;28;20491;-62
2022/03/11 01:16:25;;;;;;;14.90;5.47;;;;;;;-4.49;40.41;102168.25;4189504;28;20313;-64
2022/03/11 01:18:51;;;;;;;16.40;5.20;;;;;;;-4.50;40.06;102172.56;4199863;28;20549;-64
2022/03/11 01:21:18;;;;;;;16.60;5.20;;;;;;;-4.49;40.31;102166.50;4194619;28;20233;-66
2022/03/11 01:23:45;;;;;;;17.50;5.60;;;;;;;-4.47;40.35;102175.16;4201519;28;20232;-63
2022/03/11 01:26:12;;;;;;;16.40;4.90;;;;;;;-4.39;40.21;102169.94;4218060;28;22420;-67
2022/03/11 01:28:41;;;;;;;18.37;5.30;;;;;;;-4.45;40.30;102169.94;4189221;28;20227;-64
2022/03/11 01:31:11;;;;;;;13.57;4.70;;;;;;;-4.35;40.24;102171.66;4194848;28;20247;-65
2022/03/11 01:33:39;;;;;;;14.83;4.87;;;;;;;-4.40;40.70;102168.22;4212878;28;20287;-64
2022/03/11 01:36:06;;;;;;;17.13;4.63;;;;;;;-4.38;40.71;102176.84;4209444;28;20251;-67
2022/03/11 01:38:33;;;;;;;15.30;5.37;;;;;;;-4.51;41.12;102172.59;4200819;28;22934;-65
2022/03/11 01:40:59;;;;;;;17.20;5.50;;;;;;;-4.54;41.53;102180.38;4206514;28;20232;-66
2022/03/11 01:43:27;;;;;;;14.60;5.37;;;;;;;-4.59;42.36;102188.22;4201909;28;20231;-64
2022/03/11 01:45:55;;;;;;;17.50;5.50;;;;;;;-4.57;42.18;102189.03;4200796;28;20244;-67
2022/03/11 01:48:21;;;;;;;18.83;6.83;;;;;;;-4.59;43.47;102192.50;4205081;28;20325;-65
2022/03/11 01:50:48;;;;;;;23.37;7.83;;;;;;;-4.67;44.30;102185.63;4201810;28;22077;-64
2022/03/11 01:53:15;;;;;;;25.93;7.63;;;;;;;-4.68;44.85;102190.84;4193858;28;20241;-63
2022/03/11 01:55:41;;;;;;;24.03;7.90;;;;;;;-4.75;45.47;102195.19;4191275;28;20618;-62
2022/03/11 01:58:08;;;;;;;24.57;8.40;;;;;;;-4.86;46.17;102193.47;4192760;28;20319;-63
2022/03/11 02:00:38;;;;;;;28.10;8.57;;;;;;;-4.90;46.67;102184.81;4188130;28;21873;-67
2022/03/11 02:03:07;;;;;;;22.63;9.27;;;;;;;-5.04;47.90;102189.16;4202607;28;20243;-66
2022/03/11 02:05:34;;;;;;;27.73;8.73;;;;;;;-4.98;47.69;102190.03;4196605;28;20237;-63
2022/03/11 02:08:01;;;;;;;30.57;9.43;;;;;;;-4.96;47.89;102187.44;4189230;28;21657;-64
2022/03/11 02:10:30;;;;;;;26.63;9.77;;;;;;;-5.06;48.17;102193.50;4194480;28;20392;-66
2022/03/11 02:12:57;;;;;;;27.97;9.53;;;;;;;-5.07;48.82;102189.19;4201355;28;21727;-65
2022/03/11 02:15:24;;;;;;;32.90;9.63;;;;;;;-5.33;49.54;102188.34;4190594;28;20295;-64
2022/03/11 02:17:50;;;;;;;29.57;9.83;;;;;;;-5.49;50.38;102185.75;4202344;28;20676;-65
2022/03/11 02:20:17;;;;;;;30.33;9.43;;;;;;;-5.45;50.22;102198.72;4195167;28;20295;-65
2022/03/11 02:22:44;;;;;;;35.70;9.90;;;;;;;-5.64;51.27;102197.84;4183075;28;21513;-65
2022/03/11 02:25:11;;;;;;;26.13;9.70;;;;;;;-5.91;52.39;102193.47;4204445;28;20237;-64
2022/03/11 02:27:38;;;;;;;29.53;9.93;;;;;;;-6.04;52.97;102186.56;4190390;28;20228;-64
2022/03/11 02:30:16;;;;;;;25.37;9.23;;;;;;;-6.15;53.87;102189.13;4212040;28;20354;-64
2022/03/11 02:32:43;;;;;;;30.93;10.03;;;;;;;-6.05;53.38;102190.88;4212984;28;20240;-64
2022/03/11 02:35:11;;;;;;;28.63;9.40;;;;;;;-5.99;53.41;102196.09;4201290;28;22829;-63
2022/03/11 02:37:37;;;;;;;26.63;9.13;;;;;;;-5.98;53.17;102190.03;4199255;28;22272;-64
2022/03/11 02:40:05;;;;;;;31.40;9.63;;;;;;;-6.11;53.74;102188.28;4197130;28;20243;-67
2022/03/11 02:42:31;;;;;;;35.73;10.07;;;;;;;-6.06;53.51;102194.34;4187581;28;22211;-64
2022/03/11 02:44:59;;;;;;;30.83;10.50;;;;;;;-6.23;54.49;102193.41;4193672;28;20237;-66
2022/03/11 02:47:27;;;;;;;33.43;10.30;;;;;;;-6.20;54.79;102190.84;4182862;28;20615;-65
2022/03/11 02:49:53;;;;;;;29.23;9.57;;;;;;;-6.25;54.83;102187.34;4199081;28;20316;-64
2022/03/11 02:52:21;;;;;;;41.43;11.93;;;;;;;-6.03;54.63;102193.47;4198065;28;21307;-63
2022/03/11 02:54:48;;;;;;;34.73;11.27;;;;;;;-6.16;55.08;102187.38;4191743;28;20233;-64
2022/03/11 02:57:16;;;;;;;33.00;10.83;;;;;;;-6.23;55.65;102183.94;4177176;28;21245;-62
2022/03/11 02:59:45;;;;;;;32.37;10.40;;;;;;;-6.23;55.72;102189.13;4183393;28;20234;-63
2022/03/11 03:02:13;;;;;;;39.17;11.63;;;;;;;-6.29;55.93;102191.69;4191957;28;20237;-65
2022/03/11 03:04:39;;;;;;;34.57;12.30;;;;;;;-6.10;55.04;102192.59;4191158;28;20233;-62
2022/03/11 03:07:07;;;;;;;37.03;11.90;;;;;;;-6.01;54.83;102190.03;4189240;28;20248;-63
2022/03/11 03:09:36;;;;;;;41.37;12.93;;;;;;;-6.06;55.28;102191.75;4207011;28;21819;-64
2022/03/11 03:12:03;;;;;;;39.93;11.90;;;;;;;-6.16;55.73;102192.56;4199247;28;20228;-65
2022/03/11 03:14:29;;;;;;;37.80;12.47;;;;;;;-6.11;55.55;102190.88;4196108;28;21244;-63
2022/03/11 03:16:56;;;;;;;37.63;13.10;;;;;;;-6.09;55.30;102193.47;4191216;28;20300;-62
2022/03/11 03:19:22;;;;;;;42.97;13.20;;;;;;;-6.16;55.76;102184.78;4196604;28;23583;-65
2022/03/11 03:21:49;;;;;;;39.87;13.13;;;;;;;-6.41;57.05;102176.94;4210105;28;22476;-65
2022/03/11 03:24:16;;;;;;;42.07;11.73;;;;;;;-6.41;57.36;102182.13;4192956;28;21058;-64
2022/03/11 03:26:43;;;;;;;40.57;12.70;;;;;;;-6.37;57.07;102178.72;4201537;28;20237;-63
2022/03/11 03:29:09;;;;;;;40.33;12.47;;;;;;;-6.28;56.85;102179.59;4208123;28;20283;-63
2022/03/11 03:31:36;;;;;;;34.03;11.37;;;;;;;-6.20;56.67;102185.66;4195583;28;20422;-65
2022/03/11 03:34:03;;;;;;;33.27;11.73;;;;;;;-6.30;56.96;102179.56;4204587;28;20236;-65
2022/03/11 03:36:30;;;;;;;31.37;10.90;;;;;;;-6.35;56.72;102180.41;4205006;28;22242;-65
2022/03/11 03:38:56;;;;;;;35.73;11.33;;;;;;;-6.23;56.22;102183.03;4190903;28;20600;-64
2022/03/11 03:41:23;;;;;;;38.17;11.60;;;;;;;-6.22;56.39;102184.78;4213022;28;26233;-64
2022/03/11 03:43:49;;;;;;;38.27;12.07;;;;;;;-6.17;56.19;102186.53;4206224;28;20239;-66
2022/03/11 03:46:16;;;;;;;32.53;11.00;;;;;;;-6.31;56.32;102192.53;4193506;28;20230;-62
2022/03/11 03:48:43;;;;;;;32.63;11.37;;;;;;;-6.30;56.37;102184.75;4197997;28;20239;-66
2022/03/11 03:51:10;;;;;;;37.27;11.53;;;;;;;-6.33;56.45;102184.75;4192097;28;20256;-62
2022/03/11 03:53:37;;;;;;;33.83;12.10;;;;;;;-6.24;56.34;102183.91;4208840;28;20231;-66
2022/03/11 03:56:03;;;;;;;32.43;10.67;;;;;;;-6.29;56.01;102185.63;4194078;28;20358;-64
2022/03/11 03:58:30;;;;;;;32.37;11.60;;;;;;;-6.34;56.62;102182.13;4195957;28;20291;-65
2022/03/11 04:00:56;;;;;;;32.03;10.77;;;;;;;-6.39;56.69;102190.78;4193850;28;20259;-66
2022/03/11 04:03:24;;;;;;;37.80;11.87;;;;;;;-6.56;57.44;102188.97;4198363;28;21274;-65
2022/03/11 04:05:50;;;;;;;33.37;11.40;;;;;;;-6.73;58.14;102179.41;4226283;28;20296;-64
2022/03/11 04:08:17;;;;;;;33.93;11.47;;;;;;;-6.64;58.45;102183.75;4205614;28;20322;-66
2022/03/11 04:10:43;;;;;;;40.13;12.40;;;;;;;-6.65;58.74;102180.31;4187855;28;22111;-65
2022/03/11 04:13:10;;;;;;;41.00;11.87;;;;;;;-6.63;58.11;102190.66;4205883;28;21219;-66
2022/03/11 04:15:36;;;;;;;36.23;11.03;;;;;;;-6.67;58.73;102183.72;4193601;28;22477;-65
2022/03/11 04:18:03;;;;;;;29.80;9.77;;;;;;;-6.67;58.54;102179.44;4190952;28;20308;-64
2022/03/11 04:20:31;;;;;;;31.40;10.60;;;;;;;-6.68;58.61;102182.00;4184806;28;21477;-65
2022/03/11 04:22:59;;;;;;;33.00;10.17;;;;;;;-6.60;58.28;102182.94;4196098;28;21791;-65
2022/03/11 04:25:26;;;;;;;34.80;10.40;;;;;;;-6.62;57.87;102184.63;4204834;28;20291;-66
2022/03/11 04:27:52;;;;;;;33.80;11.63;;;;;;;-6.49;57.96;102194.16;4189677;28;20248;-64
2022/03/11 04:30:19;;;;;;;36.23;11.03;;;;;;;-6.43;57.35;102183.84;4189067;28;22892;-64
2022/03/11 04:32:46;;;;;;;27.23;10.10;;;;;;;-6.39;57.13;102185.59;4189208;28;20287;-67
2022/03/11 04:35:15;;;;;;;34.87;9.77;;;;;;;-6.41;56.92;102184.72;4195372;28;20267;-64
2022/03/11 04:37:41;;;;;;;33.43;10.37;;;;;;;-6.42;57.29;102182.97;4189224;28;20270;-64
2022/03/11 04:40:09;;;;;;;29.53;9.33;;;;;;;-6.39;57.10;102187.34;4191480;28;20227;-66
2022/03/11 04:42:36;;;;;;;30.20;9.37;;;;;;;-6.45;57.08;102189.88;4199669;28;20255;-65
2022/03/11 04:45:04;;;;;;;27.03;9.50;;;;;;;-6.54;57.37;102180.34;4195537;28;20237;-64
2022/03/11 04:47:30;;;;;;;25.97;9.27;;;;;;;-6.56;57.40;102179.47;4190657;28;22794;-64
2022/03/11 04:49:57;;;;;;;30.43;10.07;;;;;;;-6.48;57.25;102174.34;4202204;28;20269;-64
2022/03/11 04:52:23;;;;;;;32.47;9.53;;;;;;;-6.65;58.05;102182.91;4197718;28;20275;-66
2022/03/11 04:54:50;;;;;;;32.20;9.47;;;;;;;-6.50;57.50;102176.91;4183499;28;20248;-65
2022/03/11 04:57:17;;;;;;;27.33;9.83;;;;;;;-6.46;57.21;102178.66;4204578;28;20234;-64
2022/03/11 04:59:44;;;;;;;34.57;9.40;;;;;;;-6.47;57.16;102173.47;4189339;28;20340;-66
2022/03/11 05:02:10;;;;;;;25.40;8.97;;;;;;;-6.42;57.11;102174.34;4191882;28;20240;-66
2022/03/11 05:04:37;;;;;;;26.87;9.73;;;;;;;-6.52;57.36;102178.63;4190808;28;20235;-64
2022/03/11 05:07:06;;;;;;;33.97;8.63;;;;;;;-6.46;57.11;102183.84;4190488;28;20229;-65
2022/03/11 05:09:32;;;;;;;25.67;9.10;;;;;;;-6.49;57.24;102176.03;4183478;28;21529;-66
2022/03/11 05:11:59;;;;;;;33.93;8.90;;;;;;;-6.38;57.11;102184.72;4192771;28;20229;-63
2022/03/11 05:14:25;;;;;;;28.53;8.87;;;;;;;-6.28;56.86;102182.16;4193875;28;20242;-62
2022/03/11 05:16:52;;;;;;;25.83;9.07;;;;;;;-6.22;56.26;102183.06;4201798;28;20242;-65
2022/03/11 05:19:18;;;;;;;24.07;9.03;;;;;;;-6.19;56.14;102183.06;4181931;28;20234;-64
2022/03/11 05:21:45;;;;;;;28.23;8.67;;;;;;;-6.25;56.52;102177.00;4167339;28;20296;-66
2022/03/11 05:24:11;;;;;;;27.20;8.03;;;;;;;-6.28;56.53;102182.16;4181058;28;20229;-65
2022/03/11 05:26:38;;;;;;;23.60;8.03;;;;;;;-6.25;56.43;102175.28;4154303;28;24571;-65
2022/03/11 05:29:04;;;;;;;28.30;8.90;;;;;;;-6.07;56.10;102181.38;4174290;28;20229;-66
2022/03/11 05:31:31;;;;;;;31.27;9.30;;;;;;;-6.07;56.18;102182.22;4189809;28;20354;-65
2022/03/11 05:33:58;;;;;;;26.23;8.87;;;;;;;-6.13;55.74;102182.22;4187289;28;20237;-69
2022/03/11 05:36:24;;;;;;;32.37;9.73;;;;;;;-6.06;55.84;102186.56;4174496;28;22601;-64
2022/03/11 05:38:51;;;;;;;30.30;8.93;;;;;;;-6.06;55.33;102190.91;4188981;28;20354;-67
2022/03/11 05:41:18;;;;;;;27.73;9.27;;;;;;;-6.01;55.50;102199.53;4181621;28;20231;-68
2022/03/11 05:43:44;;;;;;;27.70;8.93;;;;;;;-5.93;54.99;102206.41;4170238;28;20244;-72
2022/03/11 05:46:11;;;;;;;26.93;8.97;;;;;;;-5.88;54.78;102213.34;4193554;28;20570;-68
2022/03/11 05:48:38;;;;;;;21.47;7.77;;;;;;;-5.90;55.27;102209.88;4181814;28;21653;-66
2022/03/11 05:51:06;;;;;;;29.13;7.73;;;;;;;-6.00;55.04;102209.88;4179691;28;20352;-67
2022/03/11 05:53:33;;;;;;;26.17;9.40;;;;;;;-5.88;54.57;102215.94;4180011;28;23768;-66
2022/03/11 05:55:59;;;;;;;25.73;7.80;;;;;;;-5.76;54.56;102216.84;4197258;28;20240;-67
2022/03/11 05:58:26;;;;;;;22.10;8.27;;;;;;;-5.94;54.65;102214.25;4186791;28;20308;-67
2022/03/11 06:00:52;;;;;;;26.57;8.30;;;;;;;-5.83;54.58;102216.81;4179606;28;20244;-65
2022/03/11 06:03:20;;;;;;;25.37;8.30;;;;;;;-5.66;53.94;102222.91;4187327;28;23444;-65
2022/03/11 06:05:48;;;;;;;28.70;8.30;;;;;;;-5.68;53.82;102219.44;4172824;28;20429;-66
2022/03/11 06:08:15;;;;;;;23.03;8.17;;;;;;;-5.68;54.13;102218.59;4191372;28;20238;-66
2022/03/11 06:10:42;;;;;;;26.43;8.40;;;;;;;-5.66;53.40;102220.31;4202883;28;22252;-64
2022/03/11 06:13:09;;;;;;;24.47;8.13;;;;;;;-5.61;52.86;102213.41;4182125;28;20258;-65
2022/03/11 06:15:36;;;;;;;25.27;8.40;;;;;;;-5.46;53.13;102219.47;4239545;28;20309;-67
2022/03/11 06:18:02;;;;;;;33.53;8.63;;;;;;;-5.32;51.81;102222.91;4221595;28;20232;-66
2022/03/11 06:20:30;;;;;;;24.00;8.27;;;;;;;-5.15;51.51;102228.09;4196694;28;20245;-68
2022/03/11 06:22:57;;;;;;;21.90;7.70;;;;;;;-5.09;51.05;102235.91;4227402;28;20672;-67
2022/03/11 06:25:24;;;;;;;24.03;8.07;;;;;;;-5.09;51.12;102235.91;4198035;28;23500;-66
2022/03/11 06:27:51;;;;;;;18.50;6.93;;;;;;;-4.99;49.77;102234.16;4217095;28;20696;-66
2022/03/11 06:30:18;;;;;;;19.30;6.80;;;;;;;-4.81;48.32;102236.72;4220774;28;20244;-68
2022/03/11 06:32:46;;;;;;;24.67;6.80;;;;;;;-4.76;46.54;102232.38;4204510;28;20241;-65
2022/03/11 06:35:14;;;;;;;26.83;8.13;;;;;;;-4.75;47.50;102228.09;4200043;28;20315;-66
2022/03/11 06:37:41;;;;;;;25.43;7.10;;;;;;;-4.57;47.02;102234.94;4210498;28;20225;-65
2022/03/11 06:40:09;;;;;;;19.37;5.67;;;;;;;-4.56;43.47;102236.69;4186129;28;20310;-64
2022/03/11 06:42:42;;;;;;;16.93;5.50;;;;;;;-4.48;42.72;102240.97;4203045;28;20236;-63
2022/03/11 06:45:10;;;;;;;13.40;5.00;;;;;;;-4.43;41.46;102246.16;4214379;28;20315;-65
2022/03/11 06:47:37;;;;;;;11.23;4.90;;;;;;;-4.32;40.99;102244.38;4211630;28;20238;-64
2022/03/11 06:50:05;;;;;;;13.53;5.63;;;;;;;-4.22;39.78;102247.81;4197214;28;20236;-67
2022/03/11 06:52:32;;;;;;;13.23;4.63;;;;;;;-4.13;39.50;102245.19;4196858;28;20320;-65
2022/03/11 06:54:59;;;;;;;12.13;4.10;;;;;;;-4.06;39.31;102243.41;4194451;28;20652;-67
2022/03/11 06:57:25;;;;;;;12.23;4.23;;;;;;;-3.98;38.65;102244.25;4199076;28;20252;-67
2022/03/11 06:59:52;;;;;;;13.93;4.80;;;;;;;-3.98;38.39;102238.19;4205004;28;20228;-67
2022/03/11 07:02:18;;;;;;;14.90;4.83;;;;;;;-3.94;38.75;102243.34;4206229;28;20745;-68
2022/03/11 07:04:51;;;;;;;15.77;4.90;;;;;;;-3.83;38.37;102244.16;4217414;28;20229;-67
2022/03/11 07:07:18;;;;;;;17.73;4.77;;;;;;;-3.80;37.69;102248.47;4205152;28;21857;-67
2022/03/11 07:09:44;;;;;;;16.43;5.27;;;;;;;-3.64;37.90;102246.66;4198038;28;20477;-67
2022/03/11 07:12:11;;;;;;;16.10;6.20;;;;;;;-3.58;37.83;102251.84;4184247;28;20782;-67
2022/03/11 07:14:38;;;;;;;12.67;4.77;;;;;;;-3.51;37.20;102250.03;4223612;28;20260;-68
2022/03/11 07:17:06;;;;;;;15.87;4.97;;;;;;;-3.42;36.96;102256.06;4224326;28;21311;-67
2022/03/11 07:19:33;;;;;;;12.97;5.03;;;;;;;-3.25;36.55;102257.69;4230701;28;20234;-65
2022/03/11 07:22:02;;;;;;;17.63;5.00;;;;;;;-3.19;36.33;102258.47;4218547;28;21783;-65
2022/03/11 07:24:29;;;;;;;24.67;5.53;;;;;;;-3.04;36.39;102265.31;4206258;28;22998;-64
2022/03/11 07:26:56;;;;;;;14.43;5.10;;;;;;;-3.09;36.49;102254.09;4208337;28;23077;-66
2022/03/11 07:29:23;;;;;;;15.90;5.60;;;;;;;-2.79;36.67;102265.06;4239784;28;22182;-65
2022/03/11 07:31:50;;;;;;;18.43;5.77;;;;;;;-2.57;35.35;102261.41;4254558;28;20308;-64
2022/03/11 07:34:17;;;;;;;18.60;4.77;;;;;;;-2.13;33.12;102269.59;4214431;28;20238;-63
2022/03/11 07:36:44;;;;;;;20.17;4.57;;;;;;;-0.79;32.00;102272.84;4230216;28;20276;-65
2022/03/11 07:39:10;;;;;;;16.63;4.73;;;;;;;3.40;27.29;102288.19;4203511;28;25811;-64
2022/03/11 07:41:37;;;;;;;21.47;4.80;;;;;;;6.51;22.58;102300.16;4207832;28;20334;-71
2022/03/11 07:44:04;;;;;;;15.57;4.77;;;;;;;9.29;17.82;102323.44;4228391;28;20241;-67
2022/03/11 07:46:41;;;;;;;14.37;4.70;;;;;;;9.80;16.74;102322.19;4209431;28;21604;-66
2022/03/11 07:49:08;;;;;;;12.97;4.60;;;;;;;12.01;14.68;102331.75;4237110;28;20761;-65
2022/03/11 07:51:35;;;;;;;13.40;5.40;;;;;;;13.44;12.93;102342.75;4226216;28;20491;-66
2022/03/11 07:54:02;;;;;;;22.93;5.63;;;;;;;15.24;11.85;102352.53;4220829;28;20377;-67
2022/03/11 07:56:29;;;;;;;20.50;5.30;;;;;;;17.80;10.39;102356.63;4248977;28;20739;-64
2022/03/11 07:58:56;;;;;;;12.83;5.30;;;;;;;18.54;8.63;102360.34;4231008;28;20239;-67
2022/03/11 08:01:23;;;;;;;13.20;4.87;;;;;;;19.99;7.96;102361.06;4227456;28;20244;-66
2022/03/11 08:03:50;;;;;;;18.37;6.73;;;;;;;20.23;7.57;102351.38;4283092;28;21548;-65
2022/03/11 08:06:17;;;;;;;17.37;7.30;;;;;;;20.87;7.11;102359.91;4223867;28;21880;-66
2022/03/11 08:08:43;;;;;;;12.27;5.37;;;;;;;20.54;7.04;102354.38;4199238;28;20766;-67
2022/03/11 08:11:11;;;;;;;11.20;4.40;;;;;;;21.08;6.90;102341.34;4227862;28;22189;-67
2022/03/11 08:13:38;;;;;;;11.80;5.13;;;;;;;18.76;7.44;102340.22;4265706;28;21364;-70
2022/03/11 08:16:10;;;;;;;14.00;5.23;;;;;;;18.64;7.60;102331.50;4287784;28;20240;-64
2022/03/11 08:18:37;;;;;;;13.13;4.50;;;;;;;16.47;7.97;102324.00;4234212;28;21209;-65
2022/03/11 08:21:04;;;;;;;17.63;5.70;;;;;;;14.80;9.34;102327.56;4250775;28;20655;-68
2022/03/11 08:23:31;;;;;;;11.97;5.13;;;;;;;15.12;9.25;102323.06;4250263;28;22486;-66
2022/03/11 08:25:58;;;;;;;11.87;5.47;;;;;;;16.56;8.77;102319.66;4334087;28;20264;-71
2022/03/11 08:28:25;;;;;;;11.40;4.60;;;;;;;15.20;8.48;102320.63;4261156;28;20225;-68
2022/03/11 08:30:54;;;;;;;15.37;5.07;;;;;;;15.18;9.50;102314.53;4283302;28;26811;-64
2022/03/11 08:33:22;;;;;;;15.00;5.17;;;;;;;16.73;8.25;102321.66;4264875;28;20884;-66
2022/03/11 08:36:09;;;;;;;15.60;5.33;;;;;;;15.86;8.63;102322.22;4230769;28;20313;-70
2022/03/11 08:38:41;;;;;;;13.57;4.80;;;;;;;17.78;7.77;102329.00;4275806;28;20374;-69
2022/03/11 08:41:08;;;;;;;11.90;4.50;;;;;;;17.45;7.25;102327.66;4255502;28;20364;-69
2022/03/11 08:43:38;;;;;;;12.90;4.80;;;;;;;17.62;7.42;102334.97;4269324;28;25498;-66
2022/03/11 08:46:07;;;;;;;14.63;5.10;;;;;;;16.23;8.25;102327.91;4272713;28;21227;-66
2022/03/11 08:48:35;;;;;;;12.07;4.73;;;;;;;16.63;8.63;102320.81;4395265;28;20266;-66
2022/03/11 08:51:06;;;;;;;14.43;5.07;;;;;;;16.87;7.76;102328.50;4340922;28;20413;-68
2022/03/11 08:53:33;;;;;;;18.27;5.37;;;;;;;14.66;9.43;102313.50;4342262;28;20234;-69
2022/03/11 08:56:00;;;;;;;17.67;4.87;;;;;;;13.93;9.68;102305.03;4303442;28;20410;-68
2022/03/11 08:58:27;;;;;;;10.57;4.63;;;;;;;12.19;10.92;102295.75;4266424;28;20232;-66
2022/03/11 09:00:53;;;;;;;9.20;4.17;;;;;;;9.04;12.13;102281.50;4316610;28;20237;-67
2022/03/11 09:03:20;;;;;;;10.63;4.90;;;;;;;7.28;14.10;102284.03;4284020;28;20251;-66
2022/03/11 09:05:48;;;;;;;13.23;4.90;;;;;;;5.96;15.12;102271.00;4291184;28;20220;-67
2022/03/11 09:08:15;;;;;;;9.40;4.07;;;;;;;5.38;16.52;102264.69;4383380;28;20280;-66
2022/03/11 09:10:42;;;;;;;10.23;4.57;;;;;;;4.78;16.89;102261.06;4325135;28;20233;-68
2022/03/11 09:13:09;;;;;;;14.23;5.47;;;;;;;4.48;18.10;102256.09;4332542;28;20415;-69
2022/03/11 09:15:37;;;;;;;14.77;4.80;;;;;;;4.39;18.13;102264.38;4333627;28;21373;-65
2022/03/11 09:18:10;;;;;;;11.17;4.17;;;;;;;3.96;18.06;102256.34;4287522;28;20695;-68
2022/03/11 09:20:38;;;;;;;12.50;4.37;;;;;;;3.32;17.84;102256.88;4224623;28;22273;-66
2022/03/11 09:23:06;;;;;;;9.73;4.33;;;;;;;2.98;19.12;102253.69;4260189;28;20228;-69
2022/03/11 09:25:33;;;;;;;7.53;3.60;;;;;;;2.66;19.30;102258.22;4214822;28;20370;-68
2022/03/11 09:28:05;;;;;;;11.53;3.93;;;;;;;2.52;19.63;102251.63;4212414;28;20228;-68
2022/03/11 09:30:31;;;;;;;9.93;3.60;;;;;;;2.64;19.31;102244.25;4223062;28;20379;-67
2022/03/11 09:32:58;;;;;;;8.93;3.30;;;;;;;3.06;19.45;102251.66;4225363;28;20228;-68
2022/03/11 09:35:25;;;;;;;10.57;3.53;;;;;;;3.07;19.26;102248.97;4225293;28;20235;-69
2022/03/11 09:37:52;;;;;;;12.33;3.47;;;;;;;3.14;18.16;102244.38;4233078;28;20804;-68
2022/03/11 09:40:18;;;;;;;16.30;3.77;;;;;;;3.18;18.82;102238.06;4263179;28;21136;-69
2022/03/11 09:42:45;;;;;;;8.27;3.20;;;;;;;2.57;19.09;102250.63;4226417;28;20714;-71
2022/03/11 09:45:12;;;;;;;9.07;3.70;;;;;;;2.83;19.23;102234.84;4215115;28;20654;-69
2022/03/11 09:47:40;;;;;;;9.43;3.67;;;;;;;2.89;19.03;102237.28;4200135;28;20244;-66
2022/03/11 09:50:07;;;;;;;10.60;3.23;;;;;;;3.16;18.56;102230.25;4226786;28;20241;-67
2022/03/11 09:52:35;;;;;;;5.77;2.63;;;;;;;2.86;17.80;102232.16;4215095;28;20233;-68
2022/03/11 09:55:06;;;;;;;11.70;3.23;;;;;;;2.66;18.08;102237.19;4176703;28;20354;-70
2022/03/11 09:57:33;;;;;;;14.13;3.30;;;;;;;2.14;18.96;102234.44;4202132;28;21551;-68
2022/03/11 09:59:59;;;;;;;8.30;3.37;;;;;;;2.02;20.30;102235.66;4209371;28;20289;-68
2022/03/11 10:02:26;;;;;;;9.47;3.07;;;;;;;2.09;18.55;102231.94;4195663;28;22622;-70
2022/03/11 10:04:56;;;;;;;13.10;3.00;;;;;;;2.27;18.54;102227.03;4214021;28;20244;-69
2022/03/11 10:07:42;;;;;;;12.00;2.93;;;;;;;2.50;18.79;102224.53;4211338;28;20236;-69
2022/03/11 10:10:14;;;;;;;12.83;3.30;;;;;;;2.32;18.75;102227.78;4199137;28;20251;-68
2022/03/11 10:13:00;;;;;;;12.17;2.90;;;;;;;2.47;20.18;102223.78;4213993;28;20304;-68
2022/03/11 10:15:28;;;;;;;6.77;2.70;;;;;;;2.24;19.29;102227.97;4199450;28;20247;-68
2022/03/11 10:17:57;;;;;;;16.77;3.23;;;;;;;2.17;19.94;102222.97;4210936;28;20312;-73
2022/03/11 10:20:25;;;;;;;11.90;3.63;;;;;;;2.12;19.79;102215.22;4207693;28;20248;-69
2022/03/11 10:22:52;;;;;;;12.73;3.60;;;;;;;2.03;19.93;102215.50;4194001;28;22081;-70
2022/03/11 10:25:21;;;;;;;14.83;3.03;;;;;;;1.97;20.42;102213.94;4204172;28;20320;-69
2022/03/11 10:28:08;;;;;;;15.80;3.80;;;;;;;2.31;20.49;102220.78;4216447;28;21221;-68
2022/03/11 10:30:40;;;;;;;6.87;2.93;;;;;;;1.97;20.12;102206.06;4195438;28;20237;-70
2022/03/11 10:33:12;;;;;;;12.83;3.30;;;;;;;1.92;19.72;102207.97;4194757;28;20247;-70
2022/03/11 10:35:42;;;;;;;12.57;3.07;;;;;;;2.08;20.46;102203.09;4205936;28;22083;-71
2022/03/11 10:38:11;;;;;;;10.07;2.97;;;;;;;2.06;20.35;102205.78;4216452;28;20290;-72
2022/03/11 10:40:51;;;;;;;9.53;3.10;;;;;;;2.16;19.86;102201.09;4181720;28;20300;-69
2022/03/11 10:43:37;;;;;;;11.17;2.87;;;;;;;1.99;20.51;102201.63;4211271;28;25653;-69
2022/03/11 10:46:07;;;;;;;9.70;2.97;;;;;;;1.82;20.89;102201.25;4200773;28;20564;-71
2022/03/11 10:48:47;;;;;;;6.23;2.87;;;;;;;2.01;20.61;102207.66;4208081;28;21050;-69
2022/03/11 10:51:35;;;;;;;9.27;2.83;;;;;;;2.04;21.02;102197.09;4195108;28;20287;-71
2022/03/11 10:54:09;;;;;;;9.23;3.03;;;;;;;2.13;21.11;102195.97;4210240;28;21137;-71
2022/03/11 10:56:40;;;;;;;8.20;2.73;;;;;;;2.15;20.47;102203.78;4200133;28;20353;-71
2022/03/11 10:59:27;;;;;;;9.00;2.60;;;;;;;2.30;20.24;102198.06;4208112;28;20297;-71
2022/03/11 11:01:58;;;;;;;11.20;3.17;;;;;;;1.99;20.44;102192.88;4190206;28;20507;-70
2022/03/11 11:04:26;;;;;;;10.87;2.63;;;;;;;1.84;20.63;102196.81;4211400;28;23215;-71
2022/03/11 11:06:56;;;;;;;7.47;2.90;;;;;;;2.07;20.17;102197.00;4243800;28;20325;-71
2022/03/11 11:09:23;;;;;;;8.07;2.70;;;;;;;2.28;20.38;102197.25;4196776;28;20307;-68
2022/03/11 11:11:51;;;;;;;10.63;2.93;;;;;;;2.30;21.08;102190.19;4210142;28;20270;-68
2022/03/11 11:14:18;;;;;;;6.00;2.80;;;;;;;2.45;21.17;102188.81;4213845;28;20241;-69
2022/03/11 11:16:48;;;;;;;8.17;3.30;;;;;;;2.63;20.05;102195.25;4189229;28;20628;-69
2022/03/11 11:19:19;;;;;;;9.00;3.00;;;;;;;2.41;20.21;102184.56;4190595;28;20578;-72
2022/03/11 11:21:51;;;;;;;9.93;3.50;;;;;;;2.53;20.47;102187.66;4205731;28;20288;-64